sensor_id;sensor_type;location;lat;lon;timestamp;temperature;humidity
52451;DHT22;38366;53.176;6.540;2023-04-03T00:01:36;3.40;99.90
52451;DHT22;38366;53.176;6.540;2023-04-03T00:04:04;3.40;99.90
52451;DHT22;38366;53.176;6.540;2023-04-03T00:06:31;3.40;99.90
52451;DHT22;38366;53.176;6.540;2023-04-03T00:08:56;3.30;99.90
52451;DHT22;38366;53.176;6.540;2023-04-03T00:11:22;4.00;99.90
52451;DHT22;38366;53.176;6.540;2023-04-03T00:13:48;3.30;99.90
52451;DHT22;38366;53.176;6.540;2023-04-03T00:16:14;4.30;99.90
52451;DHT22;38366;53.176;6.540;2023-04-03T00:18:40;3.40;99.90
52451;DHT22;38366;53.176;6.540;2023-04-03T00:21:06;3.30;99.90
52451;DHT22;38366;53.176;6.540;2023-04-03T00:23:32;3.10;99.90
52451;DHT22;38366;53.176;6.540;2023-04-03T00:25:58;3.10;99.90
52451;DHT22;38366;53.176;6.540;2023-04-03T00:28:23;3.70;99.90
52451;DHT22;38366;53.176;6.540;2023-04-03T00:30:50;3.00;99.90
52451;DHT22;38366;53.176;6.540;2023-04-03T00:33:16;3.00;99.90
52451;DHT22;38366;53.176;6.540;2023-04-03T00:35:42;3.00;99.90
52451;DHT22;38366;53.176;6.540;2023-04-03T00:38:08;2.90;99.90
52451;DHT22;38366;53.176;6.540;2023-04-03T00:40:37;2.90;99.90
52451;DHT22;38366;53.176;6.540;2023-04-03T00:43:12;2.90;99.90
52451;DHT22;38366;53.176;6.540;2023-04-03T00:45:41;2.90;99.90
52451;DHT22;38366;53.176;6.540;2023-04-03T00:48:11;2.80;99.90
52451;DHT22;38366;53.176;6.540;2023-04-03T00:50:40;2.80;99.90
52451;DHT22;38366;53.176;6.540;2023-04-03T00:53:10;2.80;99.90
52451;DHT22;38366;53.176;6.540;2023-04-03T00:55:37;2.70;99.90
52451;DHT22;38366;53.176;6.540;2023-04-03T00:58:05;3.10;99.90
52451;DHT22;38366;53.176;6.540;2023-04-03T01:00:32;2.00;99.90
52451;DHT22;38366;53.176;6.540;2023-04-03T01:02:59;2.70;99.90
52451;DHT22;38366;53.176;6.540;2023-04-03T01:05:26;2.70;99.90
52451;DHT22;38366;53.176;6.540;2023-04-03T01:07:52;3.00;99.90
52451;DHT22;38366;53.176;6.540;2023-04-03T01:10:19;2.60;99.90
52451;DHT22;38366;53.176;6.540;2023-04-03T01:12:48;2.60;99.90
52451;DHT22;38366;53.176;6.540;2023-04-03T01:15:23;2.60;99.90
52451;DHT22;38366;53.176;6.540;2023-04-03T01:17:52;2.50;99.90
52451;DHT22;38366;53.176;6.540;2023-04-03T01:25:34;2.40;99.90
52451;DHT22;38366;53.176;6.540;2023-04-03T01:28:02;2.40;99.90
52451;DHT22;38366;53.176;6.540;2023-04-03T01:30:32;2.40;99.90
52451;DHT22;38366;53.176;6.540;2023-04-03T01:32:59;2.30;99.90
52451;DHT22;38366;53.176;6.540;2023-04-03T01:35:24;2.30;99.90
52451;DHT22;38366;53.176;6.540;2023-04-03T01:37:50;4.00;99.90
52451;DHT22;38366;53.176;6.540;2023-04-03T01:40:16;2.30;99.90
52451;DHT22;38366;53.176;6.540;2023-04-03T01:42:42;2.30;99.90
52451;DHT22;38366;53.176;6.540;2023-04-03T01:45:08;2.20;99.90
52451;DHT22;38366;53.176;6.540;2023-04-03T01:47:34;2.20;99.90
52451;DHT22;38366;53.176;6.540;2023-04-03T01:50:00;2.20;99.90
52451;DHT22;38366;53.176;6.540;2023-04-03T01:52:26;3.50;99.90
52451;DHT22;38366;53.176;6.540;2023-04-03T01:54:52;2.10;99.90
52451;DHT22;38366;53.176;6.540;2023-04-03T01:57:18;2.10;99.90
52451;DHT22;38366;53.176;6.540;2023-04-03T01:59:43;3.10;99.90
52451;DHT22;38366;53.176;6.540;2023-04-03T02:02:09;2.00;99.90
52451;DHT22;38366;53.176;6.540;2023-04-03T02:04:35;2.00;99.90
52451;DHT22;38366;53.176;6.540;2023-04-03T02:07:00;1.90;99.90
52451;DHT22;38366;53.176;6.540;2023-04-03T02:09:26;2.00;99.90
52451;DHT22;38366;53.176;6.540;2023-04-03T02:11:52;2.50;99.90
52451;DHT22;38366;53.176;6.540;2023-04-03T02:14:18;1.90;99.90
52451;DHT22;38366;53.176;6.540;2023-04-03T02:16:44;1.80;99.90
52451;DHT22;38366;53.176;6.540;2023-04-03T02:19:09;1.90;99.90
52451;DHT22;38366;53.176;6.540;2023-04-03T02:21:35;1.80;99.90
52451;DHT22;38366;53.176;6.540;2023-04-03T02:24:01;1.90;99.90
52451;DHT22;38366;53.176;6.540;2023-04-03T02:26:26;3.10;99.90
52451;DHT22;38366;53.176;6.540;2023-04-03T02:28:52;1.70;99.90
52451;DHT22;38366;53.176;6.540;2023-04-03T02:31:18;1.70;99.90
52451;DHT22;38366;53.176;6.540;2023-04-03T02:33:44;1.70;99.90
52451;DHT22;38366;53.176;6.540;2023-04-03T02:36:10;1.70;99.90
52451;DHT22;38366;53.176;6.540;2023-04-03T02:38:36;1.60;99.90
52451;DHT22;38366;53.176;6.540;2023-04-03T02:41:04;1.60;99.90
52451;DHT22;38366;53.176;6.540;2023-04-03T02:43:30;1.60;99.90
52451;DHT22;38366;53.176;6.540;2023-04-03T02:45:56;1.60;99.90
52451;DHT22;38366;53.176;6.540;2023-04-03T02:48:22;1.60;99.90
52451;DHT22;38366;53.176;6.540;2023-04-03T02:50:48;1.60;99.90
52451;DHT22;38366;53.176;6.540;2023-04-03T02:53:15;1.50;99.90
52451;DHT22;38366;53.176;6.540;2023-04-03T02:55:41;1.70;99.90
52451;DHT22;38366;53.176;6.540;2023-04-03T02:58:06;1.50;99.90
52451;DHT22;38366;53.176;6.540;2023-04-03T03:00:33;1.50;99.90
52451;DHT22;38366;53.176;6.540;2023-04-03T03:02:58;1.50;99.90
52451;DHT22;38366;53.176;6.540;2023-04-03T03:05:25;1.50;99.90
52451;DHT22;38366;53.176;6.540;2023-04-03T03:07:51;1.40;99.90
52451;DHT22;38366;53.176;6.540;2023-04-03T03:10:17;2.40;99.90
52451;DHT22;38366;53.176;6.540;2023-04-03T03:12:43;1.40;99.90
52451;DHT22;38366;53.176;6.540;2023-04-03T03:15:09;1.70;99.90
52451;DHT22;38366;53.176;6.540;2023-04-03T03:17:35;1.40;99.90
52451;DHT22;38366;53.176;6.540;2023-04-03T03:20:03;1.30;99.90
52451;DHT22;38366;53.176;6.540;2023-04-03T03:22:29;2.20;99.90
52451;DHT22;38366;53.176;6.540;2023-04-03T03:24:54;1.30;99.90
52451;DHT22;38366;53.176;6.540;2023-04-03T03:27:20;1.20;99.90
52451;DHT22;38366;53.176;6.540;2023-04-03T03:29:46;2.60;99.90
52451;DHT22;38366;53.176;6.540;2023-04-03T03:32:12;1.20;99.90
52451;DHT22;38366;53.176;6.540;2023-04-03T03:34:37;1.20;99.90
52451;DHT22;38366;53.176;6.540;2023-04-03T03:37:03;1.20;99.90
52451;DHT22;38366;53.176;6.540;2023-04-03T03:39:29;2.60;99.90
52451;DHT22;38366;53.176;6.540;2023-04-03T03:41:55;1.10;99.90
52451;DHT22;38366;53.176;6.540;2023-04-03T03:44:21;1.10;99.90
52451;DHT22;38366;53.176;6.540;2023-04-03T03:46:47;1.10;99.90
52451;DHT22;38366;53.176;6.540;2023-04-03T03:49:13;2.10;99.90
52451;DHT22;38366;53.176;6.540;2023-04-03T03:51:39;1.00;99.90
52451;DHT22;38366;53.176;6.540;2023-04-03T03:54:06;1.00;99.90
52451;DHT22;38366;53.176;6.540;2023-04-03T03:56:32;1.00;99.90
52451;DHT22;38366;53.176;6.540;2023-04-03T03:58:57;1.00;99.90
52451;DHT22;38366;53.176;6.540;2023-04-03T04:01:24;1.10;99.90
52451;DHT22;38366;53.176;6.540;2023-04-03T04:03:50;1.00;99.90
52451;DHT22;38366;53.176;6.540;2023-04-03T04:06:16;1.80;99.90
52451;DHT22;38366;53.176;6.540;2023-04-03T04:08:42;0.80;99.90
52451;DHT22;38366;53.176;6.540;2023-04-03T04:11:08;0.70;99.90
52451;DHT22;38366;53.176;6.540;2023-04-03T04:13:34;0.80;99.90
52451;DHT22;38366;53.176;6.540;2023-04-03T04:16:00;0.80;99.90
52451;DHT22;38366;53.176;6.540;2023-04-03T04:18:26;0.70;99.90
52451;DHT22;38366;53.176;6.540;2023-04-03T04:20:51;0.40;99.90
52451;DHT22;38366;53.176;6.540;2023-04-03T04:23:18;0.70;99.90
52451;DHT22;38366;53.176;6.540;2023-04-03T04:25:48;2.30;99.90
52451;DHT22;38366;53.176;6.540;2023-04-03T04:28:15;0.70;99.90
52451;DHT22;38366;53.176;6.540;2023-04-03T04:30:41;0.80;99.90
52451;DHT22;38366;53.176;6.540;2023-04-03T04:33:07;1.20;99.90
52451;DHT22;38366;53.176;6.540;2023-04-03T04:35:33;0.70;99.90
52451;DHT22;38366;53.176;6.540;2023-04-03T04:37:59;0.70;99.90
52451;DHT22;38366;53.176;6.540;2023-04-03T04:40:26;1.40;99.90
52451;DHT22;38366;53.176;6.540;2023-04-03T04:42:51;0.60;99.90
52451;DHT22;38366;53.176;6.540;2023-04-03T04:45:17;2.10;99.90
52451;DHT22;38366;53.176;6.540;2023-04-03T04:47:43;2.00;99.90
52451;DHT22;38366;53.176;6.540;2023-04-03T04:50:09;0.60;99.90
52451;DHT22;38366;53.176;6.540;2023-04-03T04:52:35;0.60;99.90
52451;DHT22;38366;53.176;6.540;2023-04-03T04:55:01;0.90;99.90
52451;DHT22;38366;53.176;6.540;2023-04-03T04:57:27;0.50;99.90
52451;DHT22;38366;53.176;6.540;2023-04-03T04:59:52;0.50;99.90
52451;DHT22;38366;53.176;6.540;2023-04-03T05:02:18;0.50;99.90
52451;DHT22;38366;53.176;6.540;2023-04-03T05:04:44;0.50;99.90
52451;DHT22;38366;53.176;6.540;2023-04-03T05:07:10;0.40;99.90
52451;DHT22;38366;53.176;6.540;2023-04-03T05:09:35;1.50;99.90
52451;DHT22;38366;53.176;6.540;2023-04-03T05:12:01;0.50;99.90
52451;DHT22;38366;53.176;6.540;2023-04-03T05:14:28;0.40;99.90
52451;DHT22;38366;53.176;6.540;2023-04-03T05:16:54;1.60;99.90
52451;DHT22;38366;53.176;6.540;2023-04-03T05:19:20;0.40;99.90
52451;DHT22;38366;53.176;6.540;2023-04-03T05:21:47;1.60;99.90
52451;DHT22;38366;53.176;6.540;2023-04-03T05:24:13;0.40;99.90
52451;DHT22;38366;53.176;6.540;2023-04-03T05:26:39;0.30;99.90
52451;DHT22;38366;53.176;6.540;2023-04-03T05:29:05;0.40;99.90
52451;DHT22;38366;53.176;6.540;2023-04-03T05:31:30;0.40;99.90
52451;DHT22;38366;53.176;6.540;2023-04-03T05:33:56;0.40;99.90
52451;DHT22;38366;53.176;6.540;2023-04-03T05:36:22;0.40;99.90
52451;DHT22;38366;53.176;6.540;2023-04-03T05:38:49;0.50;99.90
52451;DHT22;38366;53.176;6.540;2023-04-03T05:41:15;1.60;99.90
52451;DHT22;38366;53.176;6.540;2023-04-03T05:43:41;0.50;99.90
52451;DHT22;38366;53.176;6.540;2023-04-03T05:46:12;0.50;99.90
52451;DHT22;38366;53.176;6.540;2023-04-03T05:48:38;0.60;99.90
52451;DHT22;38366;53.176;6.540;2023-04-03T05:51:05;0.60;99.90
52451;DHT22;38366;53.176;6.540;2023-04-03T05:53:34;0.60;99.90
52451;DHT22;38366;53.176;6.540;2023-04-03T05:56:01;0.70;99.90
52451;DHT22;38366;53.176;6.540;2023-04-03T05:58:26;1.90;99.90
52451;DHT22;38366;53.176;6.540;2023-04-03T06:00:52;0.90;99.90
52451;DHT22;38366;53.176;6.540;2023-04-03T06:03:18;0.90;99.90
52451;DHT22;38366;53.176;6.540;2023-04-03T06:05:43;1.00;99.90
52451;DHT22;38366;53.176;6.540;2023-04-03T06:08:09;1.10;99.90
52451;DHT22;38366;53.176;6.540;2023-04-03T06:10:35;1.90;99.90
52451;DHT22;38366;53.176;6.540;2023-04-03T06:13:01;1.20;99.90
52451;DHT22;38366;53.176;6.540;2023-04-03T06:15:27;1.20;99.90
52451;DHT22;38366;53.176;6.540;2023-04-03T06:17:53;2.30;99.90
52451;DHT22;38366;53.176;6.540;2023-04-03T06:20:19;1.50;99.90
52451;DHT22;38366;53.176;6.540;2023-04-03T06:22:45;1.50;99.90
52451;DHT22;38366;53.176;6.540;2023-04-03T06:25:11;1.60;99.90
52451;DHT22;38366;53.176;6.540;2023-04-03T06:27:38;1.70;99.90
52451;DHT22;38366;53.176;6.540;2023-04-03T06:30:05;1.80;99.90
52451;DHT22;38366;53.176;6.540;2023-04-03T06:32:31;2.00;99.90
52451;DHT22;38366;53.176;6.540;2023-04-03T06:34:57;3.00;99.90
52451;DHT22;38366;53.176;6.540;2023-04-03T06:37:24;2.80;99.90
52451;DHT22;38366;53.176;6.540;2023-04-03T06:39:54;2.30;99.90
52451;DHT22;38366;53.176;6.540;2023-04-03T06:42:20;2.40;99.90
52451;DHT22;38366;53.176;6.540;2023-04-03T06:44:46;2.50;99.90
52451;DHT22;38366;53.176;6.540;2023-04-03T06:47:16;2.70;99.90
52451;DHT22;38366;53.176;6.540;2023-04-03T06:49:43;2.80;99.90
52451;DHT22;38366;53.176;6.540;2023-04-03T06:52:09;3.80;99.90
52451;DHT22;38366;53.176;6.540;2023-04-03T06:54:35;3.00;99.90
52451;DHT22;38366;53.176;6.540;2023-04-03T06:57:01;3.20;99.90
52451;DHT22;38366;53.176;6.540;2023-04-03T06:59:27;3.40;99.90
52451;DHT22;38366;53.176;6.540;2023-04-03T07:01:53;3.60;99.90
52451;DHT22;38366;53.176;6.540;2023-04-03T07:04:19;3.50;99.90
52451;DHT22;38366;53.176;6.540;2023-04-03T07:06:48;3.60;99.90
52451;DHT22;38366;53.176;6.540;2023-04-03T07:09:14;4.90;99.90
52451;DHT22;38366;53.176;6.540;2023-04-03T07:11:43;4.80;99.90
52451;DHT22;38366;53.176;6.540;2023-04-03T07:14:09;6.10;99.90
52451;DHT22;38366;53.176;6.540;2023-04-03T07:16:35;5.50;99.90
52451;DHT22;38366;53.176;6.540;2023-04-03T07:19:01;5.90;99.90
52451;DHT22;38366;53.176;6.540;2023-04-03T07:21:27;6.60;99.90
52451;DHT22;38366;53.176;6.540;2023-04-03T07:23:54;6.70;99.90
52451;DHT22;38366;53.176;6.540;2023-04-03T07:26:19;7.00;99.90
52451;DHT22;38366;53.176;6.540;2023-04-03T07:28:46;7.20;99.90
52451;DHT22;38366;53.176;6.540;2023-04-03T07:31:14;7.20;99.90
52451;DHT22;38366;53.176;6.540;2023-04-03T07:33:41;7.50;99.90
52451;DHT22;38366;53.176;6.540;2023-04-03T07:36:07;7.90;99.90
52451;DHT22;38366;53.176;6.540;2023-04-03T07:38:34;8.00;99.90
52451;DHT22;38366;53.176;6.540;2023-04-03T07:41:00;8.20;99.90
52451;DHT22;38366;53.176;6.540;2023-04-03T07:43:26;8.30;99.90
52451;DHT22;38366;53.176;6.540;2023-04-03T07:45:52;8.30;99.90
52451;DHT22;38366;53.176;6.540;2023-04-03T07:48:21;8.40;99.90
52451;DHT22;38366;53.176;6.540;2023-04-03T07:50:47;8.60;99.90
52451;DHT22;38366;53.176;6.540;2023-04-03T07:53:13;8.60;99.90
52451;DHT22;38366;53.176;6.540;2023-04-03T07:55:39;8.90;99.90
52451;DHT22;38366;53.176;6.540;2023-04-03T07:58:13;9.10;99.90
52451;DHT22;38366;53.176;6.540;2023-04-03T08:00:40;9.00;99.90
52451;DHT22;38366;53.176;6.540;2023-04-03T08:03:07;9.10;99.90
52451;DHT22;38366;53.176;6.540;2023-04-03T08:05:37;9.10;99.90
52451;DHT22;38366;53.176;6.540;2023-04-03T08:08:04;9.20;99.90
52451;DHT22;38366;53.176;6.540;2023-04-03T08:10:30;9.40;99.90
52451;DHT22;38366;53.176;6.540;2023-04-03T08:12:56;9.80;99.90
52451;DHT22;38366;53.176;6.540;2023-04-03T08:15:22;9.90;99.90
52451;DHT22;38366;53.176;6.540;2023-04-03T08:17:48;9.70;99.90
52451;DHT22;38366;53.176;6.540;2023-04-03T08:20:14;9.90;99.90
52451;DHT22;38366;53.176;6.540;2023-04-03T08:22:39;10.00;99.90
52451;DHT22;38366;53.176;6.540;2023-04-03T08:25:06;10.00;99.90
52451;DHT22;38366;53.176;6.540;2023-04-03T08:27:32;10.10;99.40
52451;DHT22;38366;53.176;6.540;2023-04-03T08:29:57;10.20;99.40
52451;DHT22;38366;53.176;6.540;2023-04-03T08:32:24;10.50;99.90
52451;DHT22;38366;53.176;6.540;2023-04-03T08:34:49;10.70;98.30
52451;DHT22;38366;53.176;6.540;2023-04-03T08:37:15;10.70;98.50
52451;DHT22;38366;53.176;6.540;2023-04-03T08:39:42;11.10;98.90
52451;DHT22;38366;53.176;6.540;2023-04-03T08:42:34;10.70;97.10
52451;DHT22;38366;53.176;6.540;2023-04-03T08:45:12;11.10;97.10
52451;DHT22;38366;53.176;6.540;2023-04-03T08:47:52;11.30;97.80
52451;DHT22;38366;53.176;6.540;2023-04-03T08:50:20;11.80;97.40
52451;DHT22;38366;53.176;6.540;2023-04-03T08:52:51;11.80;96.90
52451;DHT22;38366;53.176;6.540;2023-04-03T08:55:23;11.90;95.50
52451;DHT22;38366;53.176;6.540;2023-04-03T08:58:03;12.00;95.90
52451;DHT22;38366;53.176;6.540;2023-04-03T09:03:37;12.30;95.40
52451;DHT22;38366;53.176;6.540;2023-04-03T09:06:15;12.10;95.60
52451;DHT22;38366;53.176;6.540;2023-04-03T09:08:51;12.40;96.00
52451;DHT22;38366;53.176;6.540;2023-04-03T09:11:26;12.80;94.80
52451;DHT22;38366;53.176;6.540;2023-04-03T09:14:33;12.90;95.00
52451;DHT22;38366;53.176;6.540;2023-04-03T09:20:25;12.90;94.30
52451;DHT22;38366;53.176;6.540;2023-04-03T09:22:53;12.80;95.10
52451;DHT22;38366;53.176;6.540;2023-04-03T09:25:29;13.40;93.50
52451;DHT22;38366;53.176;6.540;2023-04-03T09:27:59;13.00;94.00
52451;DHT22;38366;53.176;6.540;2023-04-03T09:30:27;13.20;94.30
52451;DHT22;38366;53.176;6.540;2023-04-03T09:32:55;13.50;92.90
52451;DHT22;38366;53.176;6.540;2023-04-03T09:35:28;13.60;92.70
52451;DHT22;38366;53.176;6.540;2023-04-03T09:38:13;13.60;90.90
52451;DHT22;38366;53.176;6.540;2023-04-03T09:40:45;13.60;92.20
52451;DHT22;38366;53.176;6.540;2023-04-03T09:43:24;13.90;92.40
52451;DHT22;38366;53.176;6.540;2023-04-03T09:45:51;14.20;90.80
52451;DHT22;38366;53.176;6.540;2023-04-03T09:48:20;14.40;90.00
52451;DHT22;38366;53.176;6.540;2023-04-03T09:50:59;14.20;90.90
52451;DHT22;38366;53.176;6.540;2023-04-03T09:53:35;13.50;90.90
52451;DHT22;38366;53.176;6.540;2023-04-03T09:58:46;13.70;90.50
52451;DHT22;38366;53.176;6.540;2023-04-03T10:01:27;13.90;90.30
52451;DHT22;38366;53.176;6.540;2023-04-03T10:06:39;14.40;88.30
52451;DHT22;38366;53.176;6.540;2023-04-03T10:09:30;14.40;88.90
52451;DHT22;38366;53.176;6.540;2023-04-03T10:12:02;14.90;89.20
52451;DHT22;38366;53.176;6.540;2023-04-03T10:14:31;14.60;87.10
52451;DHT22;38366;53.176;6.540;2023-04-03T10:20:00;15.00;83.70
52451;DHT22;38366;53.176;6.540;2023-04-03T10:25:38;15.30;84.40
52451;DHT22;38366;53.176;6.540;2023-04-03T10:28:27;15.40;86.10
52451;DHT22;38366;53.176;6.540;2023-04-03T10:31:04;15.00;81.90
52451;DHT22;38366;53.176;6.540;2023-04-03T10:42:38;16.00;78.20
52451;DHT22;38366;53.176;6.540;2023-04-03T10:48:09;16.00;79.70
52451;DHT22;38366;53.176;6.540;2023-04-03T10:50:43;16.20;79.20
52451;DHT22;38366;53.176;6.540;2023-04-03T10:56:42;16.20;77.10
52451;DHT22;38366;53.176;6.540;2023-04-03T11:01:51;16.20;77.70
52451;DHT22;38366;53.176;6.540;2023-04-03T11:04:19;16.30;76.50
52451;DHT22;38366;53.176;6.540;2023-04-03T11:07:08;16.40;78.20
52451;DHT22;38366;53.176;6.540;2023-04-03T11:09:44;16.20;76.90
52451;DHT22;38366;53.176;6.540;2023-04-03T11:14:47;16.60;76.90
52451;DHT22;38366;53.176;6.540;2023-04-03T11:20:04;16.80;78.20
52451;DHT22;38366;53.176;6.540;2023-04-03T11:22:35;16.50;75.70
52451;DHT22;38366;53.176;6.540;2023-04-03T11:30:18;17.00;77.10
52451;DHT22;38366;53.176;6.540;2023-04-03T11:35:43;17.50;75.00
52451;DHT22;38366;53.176;6.540;2023-04-03T11:38:17;18.00;74.60
52451;DHT22;38366;53.176;6.540;2023-04-03T11:40:44;17.80;75.60
52451;DHT22;38366;53.176;6.540;2023-04-03T11:43:28;17.20;74.30
52451;DHT22;38366;53.176;6.540;2023-04-03T11:51:01;18.00;74.50
52451;DHT22;38366;53.176;6.540;2023-04-03T11:53:39;17.60;72.90
52451;DHT22;38366;53.176;6.540;2023-04-03T12:01:43;16.80;72.20
52451;DHT22;38366;53.176;6.540;2023-04-03T12:04:11;16.70;74.00
52451;DHT22;38366;53.176;6.540;2023-04-03T12:09:27;17.30;73.00
52451;DHT22;38366;53.176;6.540;2023-04-03T12:11:56;18.20;73.10
52451;DHT22;38366;53.176;6.540;2023-04-03T12:14:23;18.40;76.20
52451;DHT22;38366;53.176;6.540;2023-04-03T12:16:52;17.60;73.30
52451;DHT22;38366;53.176;6.540;2023-04-03T12:19:38;17.60;73.80
52451;DHT22;38366;53.176;6.540;2023-04-03T12:22:14;17.00;73.80
52451;DHT22;38366;53.176;6.540;2023-04-03T12:24:46;17.00;74.20
52451;DHT22;38366;53.176;6.540;2023-04-03T12:35:40;17.10;74.50
52451;DHT22;38366;53.176;6.540;2023-04-03T12:40:52;17.50;73.90
52451;DHT22;38366;53.176;6.540;2023-04-03T12:46:46;17.20;72.60
52451;DHT22;38366;53.176;6.540;2023-04-03T12:51:57;17.00;74.50
52451;DHT22;38366;53.176;6.540;2023-04-03T12:54:30;16.60;74.50
52451;DHT22;38366;53.176;6.540;2023-04-03T12:57:17;16.70;74.30
52451;DHT22;38366;53.176;6.540;2023-04-03T12:59:43;16.60;75.20
52451;DHT22;38366;53.176;6.540;2023-04-03T13:04:44;16.20;73.90
52451;DHT22;38366;53.176;6.540;2023-04-03T13:07:30;16.30;75.00
52451;DHT22;38366;53.176;6.540;2023-04-03T13:12:49;16.30;73.70
52451;DHT22;38366;53.176;6.540;2023-04-03T13:15:30;16.20;75.80
52451;DHT22;38366;53.176;6.540;2023-04-03T13:17:56;16.00;75.00
52451;DHT22;38366;53.176;6.540;2023-04-03T13:20:26;16.50;74.60
52451;DHT22;38366;53.176;6.540;2023-04-03T13:23:00;16.80;75.70
52451;DHT22;38366;53.176;6.540;2023-04-03T13:25:31;17.10;75.60
52451;DHT22;38366;53.176;6.540;2023-04-03T13:27:59;17.20;74.00
52451;DHT22;38366;53.176;6.540;2023-04-03T13:30:34;17.50;74.50
52451;DHT22;38366;53.176;6.540;2023-04-03T13:33:06;17.50;74.40
52451;DHT22;38366;53.176;6.540;2023-04-03T13:35:34;16.40;76.40
52451;DHT22;38366;53.176;6.540;2023-04-03T13:38:04;15.70;74.70
52451;DHT22;38366;53.176;6.540;2023-04-03T13:40:31;14.90;75.40
52451;DHT22;38366;53.176;6.540;2023-04-03T13:43:06;14.00;76.00
52451;DHT22;38366;53.176;6.540;2023-04-03T13:45:34;14.00;77.50
52451;DHT22;38366;53.176;6.540;2023-04-03T13:48:16;14.00;77.50
52451;DHT22;38366;53.176;6.540;2023-04-03T13:51:01;13.90;77.30
52451;DHT22;38366;53.176;6.540;2023-04-03T13:53:30;13.40;76.30
52451;DHT22;38366;53.176;6.540;2023-04-03T13:56:04;13.30;78.50
52451;DHT22;38366;53.176;6.540;2023-04-03T13:58:32;13.00;76.70
52451;DHT22;38366;53.176;6.540;2023-04-03T14:01:09;13.20;78.70
52451;DHT22;38366;53.176;6.540;2023-04-03T14:03:52;13.20;78.50
52451;DHT22;38366;53.176;6.540;2023-04-03T14:06:19;13.20;78.90
52451;DHT22;38366;53.176;6.540;2023-04-03T14:08:45;13.00;77.40
52451;DHT22;38366;53.176;6.540;2023-04-03T14:11:24;13.10;80.70
52451;DHT22;38366;53.176;6.540;2023-04-03T14:13:50;13.20;82.40
52451;DHT22;38366;53.176;6.540;2023-04-03T14:16:19;12.90;80.20
52451;DHT22;38366;53.176;6.540;2023-04-03T14:18:46;12.90;79.40
52451;DHT22;38366;53.176;6.540;2023-04-03T14:21:14;12.90;79.50
52451;DHT22;38366;53.176;6.540;2023-04-03T14:23:44;12.60;80.20
52451;DHT22;38366;53.176;6.540;2023-04-03T14:26:19;12.60;81.10
52451;DHT22;38366;53.176;6.540;2023-04-03T14:28:49;12.70;83.20
52451;DHT22;38366;53.176;6.540;2023-04-03T14:31:16;12.40;81.90
52451;DHT22;38366;53.176;6.540;2023-04-03T14:33:43;12.30;83.00
52451;DHT22;38366;53.176;6.540;2023-04-03T14:36:14;12.30;81.60
52451;DHT22;38366;53.176;6.540;2023-04-03T14:38:41;12.40;82.20
52451;DHT22;38366;53.176;6.540;2023-04-03T14:41:09;12.30;82.20
52451;DHT22;38366;53.176;6.540;2023-04-03T14:43:35;12.20;81.20
52451;DHT22;38366;53.176;6.540;2023-04-03T14:46:01;12.20;82.60
52451;DHT22;38366;53.176;6.540;2023-04-03T14:48:27;11.90;82.00
52451;DHT22;38366;53.176;6.540;2023-04-03T14:50:55;12.00;81.40
52451;DHT22;38366;53.176;6.540;2023-04-03T14:53:21;12.00;81.20
52451;DHT22;38366;53.176;6.540;2023-04-03T14:55:51;12.20;82.20
52451;DHT22;38366;53.176;6.540;2023-04-03T14:58:19;12.00;82.80
52451;DHT22;38366;53.176;6.540;2023-04-03T15:00:46;12.30;83.10
52451;DHT22;38366;53.176;6.540;2023-04-03T15:03:17;12.20;81.90
52451;DHT22;38366;53.176;6.540;2023-04-03T15:05:44;12.30;83.00
52451;DHT22;38366;53.176;6.540;2023-04-03T15:08:21;12.00;84.00
52451;DHT22;38366;53.176;6.540;2023-04-03T15:10:48;12.10;84.80
52451;DHT22;38366;53.176;6.540;2023-04-03T15:13:14;12.00;85.30
52451;DHT22;38366;53.176;6.540;2023-04-03T15:15:41;12.00;83.50
52451;DHT22;38366;53.176;6.540;2023-04-03T15:18:09;12.00;83.30
52451;DHT22;38366;53.176;6.540;2023-04-03T15:20:35;12.20;83.30
52451;DHT22;38366;53.176;6.540;2023-04-03T15:23:01;12.10;82.00
52451;DHT22;38366;53.176;6.540;2023-04-03T15:25:27;12.10;82.10
52451;DHT22;38366;53.176;6.540;2023-04-03T15:27:54;12.10;81.60
52451;DHT22;38366;53.176;6.540;2023-04-03T15:30:21;12.00;83.00
52451;DHT22;38366;53.176;6.540;2023-04-03T15:32:47;11.90;82.20
52451;DHT22;38366;53.176;6.540;2023-04-03T15:35:13;11.60;81.70
52451;DHT22;38366;53.176;6.540;2023-04-03T15:37:38;11.70;82.80
52451;DHT22;38366;53.176;6.540;2023-04-03T15:40:05;11.60;82.30
52451;DHT22;38366;53.176;6.540;2023-04-03T15:42:31;11.70;81.90
52451;DHT22;38366;53.176;6.540;2023-04-03T15:44:57;11.80;82.50
52451;DHT22;38366;53.176;6.540;2023-04-03T15:47:24;11.70;81.90
52451;DHT22;38366;53.176;6.540;2023-04-03T15:49:50;11.70;82.00
52451;DHT22;38366;53.176;6.540;2023-04-03T15:52:16;11.70;83.70
52451;DHT22;38366;53.176;6.540;2023-04-03T15:54:42;11.60;82.50
52451;DHT22;38366;53.176;6.540;2023-04-03T15:57:07;11.70;83.90
52451;DHT22;38366;53.176;6.540;2023-04-03T15:59:33;11.60;83.00
52451;DHT22;38366;53.176;6.540;2023-04-03T16:02:00;11.50;82.40
52451;DHT22;38366;53.176;6.540;2023-04-03T16:04:27;11.30;80.80
52451;DHT22;38366;53.176;6.540;2023-04-03T16:06:53;11.20;82.00
52451;DHT22;38366;53.176;6.540;2023-04-03T16:09:18;11.00;82.50
52451;DHT22;38366;53.176;6.540;2023-04-03T16:11:44;11.00;82.80
52451;DHT22;38366;53.176;6.540;2023-04-03T16:14:10;10.90;84.10
52451;DHT22;38366;53.176;6.540;2023-04-03T16:16:37;10.80;83.30
52451;DHT22;38366;53.176;6.540;2023-04-03T16:19:04;10.90;83.20
52451;DHT22;38366;53.176;6.540;2023-04-03T16:21:31;10.70;84.80
52451;DHT22;38366;53.176;6.540;2023-04-03T16:23:58;10.70;84.70
52451;DHT22;38366;53.176;6.540;2023-04-03T16:26:24;10.50;85.30
52451;DHT22;38366;53.176;6.540;2023-04-03T16:28:51;10.50;83.80
52451;DHT22;38366;53.176;6.540;2023-04-03T16:31:16;10.40;84.30
52451;DHT22;38366;53.176;6.540;2023-04-03T16:33:42;10.30;85.10
52451;DHT22;38366;53.176;6.540;2023-04-03T16:36:08;10.30;85.50
52451;DHT22;38366;53.176;6.540;2023-04-03T16:38:34;10.00;86.10
52451;DHT22;38366;53.176;6.540;2023-04-03T16:40:59;10.10;86.20
52451;DHT22;38366;53.176;6.540;2023-04-03T16:43:30;10.00;86.00
52451;DHT22;38366;53.176;6.540;2023-04-03T16:45:55;9.60;85.70
52451;DHT22;38366;53.176;6.540;2023-04-03T16:48:21;9.50;86.70
52451;DHT22;38366;53.176;6.540;2023-04-03T16:50:48;9.50;87.30
52451;DHT22;38366;53.176;6.540;2023-04-03T16:53:14;9.50;88.00
52451;DHT22;38366;53.176;6.540;2023-04-03T16:55:40;9.60;88.20
52451;DHT22;38366;53.176;6.540;2023-04-03T16:58:06;9.40;88.00
52451;DHT22;38366;53.176;6.540;2023-04-03T17:00:32;9.30;90.30
52451;DHT22;38366;53.176;6.540;2023-04-03T17:02:59;9.20;91.00
52451;DHT22;38366;53.176;6.540;2023-04-03T17:05:26;9.20;91.30
52451;DHT22;38366;53.176;6.540;2023-04-03T17:07:51;9.20;91.60
52451;DHT22;38366;53.176;6.540;2023-04-03T17:10:17;9.20;91.80
52451;DHT22;38366;53.176;6.540;2023-04-03T17:12:43;9.00;91.70
52451;DHT22;38366;53.176;6.540;2023-04-03T17:15:09;8.90;91.90
52451;DHT22;38366;53.176;6.540;2023-04-03T17:17:35;8.70;92.10